sensor_id;sensor_type;location;lat;lon;timestamp;temperature;humidity
6146;DHT22;3104;50.348;7.620;2022-08-25T00:00:47;22.90;99.50
6146;DHT22;3104;50.348;7.620;2022-08-25T00:03:14;22.90;99.50
6146;DHT22;3104;50.348;7.620;2022-08-25T00:05:40;22.90;99.50
6146;DHT22;3104;50.348;7.620;2022-08-25T00:08:06;22.90;99.80
6146;DHT22;3104;50.348;7.620;2022-08-25T00:10:34;22.90;99.90
6146;DHT22;3104;50.348;7.620;2022-08-25T00:13:01;22.70;99.90
6146;DHT22;3104;50.348;7.620;2022-08-25T00:15:28;22.70;99.90
6146;DHT22;3104;50.348;7.620;2022-08-25T00:17:55;22.60;99.90
6146;DHT22;3104;50.348;7.620;2022-08-25T00:20:21;22.50;99.90
6146;DHT22;3104;50.348;7.620;2022-08-25T00:22:47;22.50;99.90
6146;DHT22;3104;50.348;7.620;2022-08-25T00:25:13;22.40;99.90
6146;DHT22;3104;50.348;7.620;2022-08-25T00:27:39;22.30;99.90
6146;DHT22;3104;50.348;7.620;2022-08-25T00:30:05;22.20;99.90
6146;DHT22;3104;50.348;7.620;2022-08-25T00:32:31;22.10;99.90
6146;DHT22;3104;50.348;7.620;2022-08-25T00:34:57;22.30;99.90
6146;DHT22;3104;50.348;7.620;2022-08-25T00:37:23;22.30;99.90
6146;DHT22;3104;50.348;7.620;2022-08-25T00:39:48;22.20;99.90
6146;DHT22;3104;50.348;7.620;2022-08-25T00:42:14;22.10;99.90
6146;DHT22;3104;50.348;7.620;2022-08-25T00:44:40;22.00;99.90
6146;DHT22;3104;50.348;7.620;2022-08-25T00:47:06;22.20;99.90
6146;DHT22;3104;50.348;7.620;2022-08-25T00:49:47;22.20;99.90
6146;DHT22;3104;50.348;7.620;2022-08-25T00:52:21;22.30;99.90
6146;DHT22;3104;50.348;7.620;2022-08-25T00:54:55;22.40;99.90
6146;DHT22;3104;50.348;7.620;2022-08-25T00:57:33;22.50;99.90
6146;DHT22;3104;50.348;7.620;2022-08-25T01:00:07;22.40;99.90
6146;DHT22;3104;50.348;7.620;2022-08-25T01:02:35;22.50;99.90
6146;DHT22;3104;50.348;7.620;2022-08-25T01:05:01;22.40;99.90
6146;DHT22;3104;50.348;7.620;2022-08-25T01:07:26;22.20;99.90
6146;DHT22;3104;50.348;7.620;2022-08-25T01:09:52;22.10;99.90
6146;DHT22;3104;50.348;7.620;2022-08-25T01:12:18;22.10;99.90
6146;DHT22;3104;50.348;7.620;2022-08-25T01:14:44;21.90;99.90
6146;DHT22;3104;50.348;7.620;2022-08-25T01:17:11;21.80;99.90
6146;DHT22;3104;50.348;7.620;2022-08-25T01:19:37;21.70;99.90
6146;DHT22;3104;50.348;7.620;2022-08-25T01:22:03;21.70;99.90
6146;DHT22;3104;50.348;7.620;2022-08-25T01:27:14;21.80;99.90
6146;DHT22;3104;50.348;7.620;2022-08-25T01:29:39;21.70;99.90
6146;DHT22;3104;50.348;7.620;2022-08-25T01:32:09;21.50;99.90
6146;DHT22;3104;50.348;7.620;2022-08-25T01:34:39;21.50;99.90
6146;DHT22;3104;50.348;7.620;2022-08-25T01:37:06;21.50;99.90
6146;DHT22;3104;50.348;7.620;2022-08-25T01:39:32;21.50;99.90
6146;DHT22;3104;50.348;7.620;2022-08-25T01:44:42;21.30;99.90
6146;DHT22;3104;50.348;7.620;2022-08-25T01:47:09;21.00;99.90
6146;DHT22;3104;50.348;7.620;2022-08-25T01:49:35;20.80;99.90
6146;DHT22;3104;50.348;7.620;2022-08-25T01:52:15;20.80;99.90
6146;DHT22;3104;50.348;7.620;2022-08-25T01:54:43;20.90;99.90
6146;DHT22;3104;50.348;7.620;2022-08-25T01:57:09;20.70;99.90
6146;DHT22;3104;50.348;7.620;2022-08-25T01:59:34;20.40;99.90
6146;DHT22;3104;50.348;7.620;2022-08-25T02:02:00;20.50;99.90
6146;DHT22;3104;50.348;7.620;2022-08-25T02:04:27;20.40;99.90
6146;DHT22;3104;50.348;7.620;2022-08-25T02:06:56;20.40;99.90
6146;DHT22;3104;50.348;7.620;2022-08-25T02:09:22;20.50;99.90
6146;DHT22;3104;50.348;7.620;2022-08-25T02:11:49;20.50;99.90
6146;DHT22;3104;50.348;7.620;2022-08-25T02:14:16;20.60;99.90
6146;DHT22;3104;50.348;7.620;2022-08-25T02:16:45;20.50;99.90
6146;DHT22;3104;50.348;7.620;2022-08-25T02:19:13;20.50;99.90
6146;DHT22;3104;50.348;7.620;2022-08-25T02:21:39;20.50;99.90
6146;DHT22;3104;50.348;7.620;2022-08-25T02:24:05;20.50;99.90
6146;DHT22;3104;50.348;7.620;2022-08-25T02:26:31;20.50;99.90
6146;DHT22;3104;50.348;7.620;2022-08-25T02:28:57;20.50;99.90
6146;DHT22;3104;50.348;7.620;2022-08-25T02:31:24;20.40;99.90
6146;DHT22;3104;50.348;7.620;2022-08-25T02:33:50;20.40;99.90
6146;DHT22;3104;50.348;7.620;2022-08-25T02:36:16;20.20;99.90
6146;DHT22;3104;50.348;7.620;2022-08-25T02:38:43;20.30;99.90
6146;DHT22;3104;50.348;7.620;2022-08-25T02:41:12;20.30;99.90
6146;DHT22;3104;50.348;7.620;2022-08-25T02:43:40;20.40;99.90
6146;DHT22;3104;50.348;7.620;2022-08-25T02:46:07;20.30;99.90
6146;DHT22;3104;50.348;7.620;2022-08-25T02:48:32;20.40;99.90
6146;DHT22;3104;50.348;7.620;2022-08-25T02:51:00;20.40;99.90
6146;DHT22;3104;50.348;7.620;2022-08-25T02:53:27;20.30;99.90
6146;DHT22;3104;50.348;7.620;2022-08-25T02:55:53;20.30;99.90
6146;DHT22;3104;50.348;7.620;2022-08-25T02:58:19;20.20;99.90
6146;DHT22;3104;50.348;7.620;2022-08-25T03:00:46;20.10;99.90
6146;DHT22;3104;50.348;7.620;2022-08-25T03:03:12;20.00;99.90
6146;DHT22;3104;50.348;7.620;2022-08-25T03:05:38;20.00;99.90
6146;DHT22;3104;50.348;7.620;2022-08-25T03:08:05;20.00;99.90
6146;DHT22;3104;50.348;7.620;2022-08-25T03:10:32;20.00;99.90
6146;DHT22;3104;50.348;7.620;2022-08-25T03:12:57;20.10;99.90
6146;DHT22;3104;50.348;7.620;2022-08-25T03:15:24;20.10;99.90
6146;DHT22;3104;50.348;7.620;2022-08-25T03:17:53;20.10;99.90
6146;DHT22;3104;50.348;7.620;2022-08-25T03:20:20;20.00;99.90
6146;DHT22;3104;50.348;7.620;2022-08-25T03:22:46;19.90;99.90
6146;DHT22;3104;50.348;7.620;2022-08-25T03:25:11;19.80;99.90
6146;DHT22;3104;50.348;7.620;2022-08-25T03:28:09;19.90;99.90
6146;DHT22;3104;50.348;7.620;2022-08-25T03:30:35;19.90;99.90
6146;DHT22;3104;50.348;7.620;2022-08-25T03:33:01;19.90;99.90
6146;DHT22;3104;50.348;7.620;2022-08-25T03:35:26;19.80;99.90
6146;DHT22;3104;50.348;7.620;2022-08-25T03:37:59;19.80;99.90
6146;DHT22;3104;50.348;7.620;2022-08-25T03:40:25;19.80;99.90
6146;DHT22;3104;50.348;7.620;2022-08-25T03:42:52;19.80;99.90
6146;DHT22;3104;50.348;7.620;2022-08-25T03:45:19;19.70;99.90
6146;DHT22;3104;50.348;7.620;2022-08-25T03:47:47;19.80;99.90
6146;DHT22;3104;50.348;7.620;2022-08-25T03:50:13;19.70;99.90
6146;DHT22;3104;50.348;7.620;2022-08-25T03:52:39;19.60;99.90
6146;DHT22;3104;50.348;7.620;2022-08-25T03:55:07;19.60;99.90
6146;DHT22;3104;50.348;7.620;2022-08-25T03:57:33;19.50;99.90
6146;DHT22;3104;50.348;7.620;2022-08-25T03:59:59;19.60;99.90
6146;DHT22;3104;50.348;7.620;2022-08-25T04:02:25;19.60;99.90
6146;DHT22;3104;50.348;7.620;2022-08-25T04:04:50;19.60;99.90
6146;DHT22;3104;50.348;7.620;2022-08-25T04:07:16;19.60;99.90
6146;DHT22;3104;50.348;7.620;2022-08-25T04:09:42;19.60;99.90
6146;DHT22;3104;50.348;7.620;2022-08-25T04:12:07;19.50;99.90
6146;DHT22;3104;50.348;7.620;2022-08-25T04:14:34;19.40;99.90
6146;DHT22;3104;50.348;7.620;2022-08-25T04:17:00;19.30;99.90
6146;DHT22;3104;50.348;7.620;2022-08-25T04:19:26;19.30;99.90
6146;DHT22;3104;50.348;7.620;2022-08-25T04:21:51;19.30;99.90
6146;DHT22;3104;50.348;7.620;2022-08-25T04:24:17;19.30;99.90
6146;DHT22;3104;50.348;7.620;2022-08-25T04:26:46;19.30;99.90
6146;DHT22;3104;50.348;7.620;2022-08-25T04:29:13;19.40;99.90
6146;DHT22;3104;50.348;7.620;2022-08-25T04:31:41;19.30;99.90
6146;DHT22;3104;50.348;7.620;2022-08-25T04:34:07;19.30;99.90
6146;DHT22;3104;50.348;7.620;2022-08-25T04:36:33;19.20;99.90
6146;DHT22;3104;50.348;7.620;2022-08-25T04:38:59;19.20;99.90
6146;DHT22;3104;50.348;7.620;2022-08-25T04:41:25;19.10;99.90
6146;DHT22;3104;50.348;7.620;2022-08-25T04:43:52;19.20;99.90
6146;DHT22;3104;50.348;7.620;2022-08-25T04:46:23;19.20;99.90
6146;DHT22;3104;50.348;7.620;2022-08-25T04:48:50;19.10;99.90
6146;DHT22;3104;50.348;7.620;2022-08-25T04:51:18;19.20;99.90
6146;DHT22;3104;50.348;7.620;2022-08-25T04:53:45;19.20;99.90
6146;DHT22;3104;50.348;7.620;2022-08-25T04:56:13;19.20;99.90
6146;DHT22;3104;50.348;7.620;2022-08-25T04:58:40;19.10;99.90
6146;DHT22;3104;50.348;7.620;2022-08-25T05:01:11;19.00;99.90
6146;DHT22;3104;50.348;7.620;2022-08-25T05:03:37;19.00;99.90
6146;DHT22;3104;50.348;7.620;2022-08-25T05:06:04;19.00;99.90
6146;DHT22;3104;50.348;7.620;2022-08-25T05:08:30;19.00;99.90
6146;DHT22;3104;50.348;7.620;2022-08-25T05:10:56;19.10;99.90
6146;DHT22;3104;50.348;7.620;2022-08-25T05:13:23;19.20;99.90
6146;DHT22;3104;50.348;7.620;2022-08-25T05:15:57;19.30;99.90
6146;DHT22;3104;50.348;7.620;2022-08-25T05:18:26;19.30;99.90
6146;DHT22;3104;50.348;7.620;2022-08-25T05:20:54;19.30;99.90
6146;DHT22;3104;50.348;7.620;2022-08-25T05:23:22;19.30;99.90
6146;DHT22;3104;50.348;7.620;2022-08-25T05:25:49;19.40;99.90
6146;DHT22;3104;50.348;7.620;2022-08-25T05:28:16;19.40;99.90
6146;DHT22;3104;50.348;7.620;2022-08-25T05:30:42;19.30;99.90
6146;DHT22;3104;50.348;7.620;2022-08-25T05:33:10;19.40;99.90
6146;DHT22;3104;50.348;7.620;2022-08-25T05:35:36;19.40;99.90
6146;DHT22;3104;50.348;7.620;2022-08-25T05:38:03;19.50;99.90
6146;DHT22;3104;50.348;7.620;2022-08-25T05:40:30;19.70;99.90
6146;DHT22;3104;50.348;7.620;2022-08-25T05:42:55;19.60;99.90
6146;DHT22;3104;50.348;7.620;2022-08-25T05:45:21;19.70;99.90
6146;DHT22;3104;50.348;7.620;2022-08-25T05:47:47;19.70;99.90
6146;DHT22;3104;50.348;7.620;2022-08-25T05:50:14;19.80;99.90
6146;DHT22;3104;50.348;7.620;2022-08-25T05:52:40;19.80;99.90
6146;DHT22;3104;50.348;7.620;2022-08-25T05:55:06;19.80;99.90
6146;DHT22;3104;50.348;7.620;2022-08-25T05:57:33;19.90;99.90
6146;DHT22;3104;50.348;7.620;2022-08-25T05:59:59;19.90;99.90
6146;DHT22;3104;50.348;7.620;2022-08-25T06:02:24;20.00;99.90
6146;DHT22;3104;50.348;7.620;2022-08-25T06:05:18;20.10;99.90
6146;DHT22;3104;50.348;7.620;2022-08-25T06:07:49;20.20;99.90
6146;DHT22;3104;50.348;7.620;2022-08-25T06:10:15;20.20;99.90
6146;DHT22;3104;50.348;7.620;2022-08-25T06:12:42;20.30;99.90
6146;DHT22;3104;50.348;7.620;2022-08-25T06:15:13;20.30;99.90
6146;DHT22;3104;50.348;7.620;2022-08-25T06:17:39;20.40;99.90
6146;DHT22;3104;50.348;7.620;2022-08-25T06:20:07;20.50;99.90
6146;DHT22;3104;50.348;7.620;2022-08-25T06:22:33;20.60;99.90
6146;DHT22;3104;50.348;7.620;2022-08-25T06:24:59;20.60;99.90
6146;DHT22;3104;50.348;7.620;2022-08-25T06:27:24;20.60;99.90
6146;DHT22;3104;50.348;7.620;2022-08-25T06:29:50;20.70;99.90
6146;DHT22;3104;50.348;7.620;2022-08-25T06:32:16;20.70;99.90
6146;DHT22;3104;50.348;7.620;2022-08-25T06:34:41;20.70;99.90
6146;DHT22;3104;50.348;7.620;2022-08-25T06:37:07;20.80;99.90
6146;DHT22;3104;50.348;7.620;2022-08-25T06:39:32;20.80;99.90
6146;DHT22;3104;50.348;7.620;2022-08-25T06:41:58;20.90;99.90
6146;DHT22;3104;50.348;7.620;2022-08-25T06:44:24;21.00;99.90
6146;DHT22;3104;50.348;7.620;2022-08-25T06:46:52;21.10;99.90
6146;DHT22;3104;50.348;7.620;2022-08-25T06:49:18;21.30;99.90
6146;DHT22;3104;50.348;7.620;2022-08-25T06:51:43;21.30;99.90
6146;DHT22;3104;50.348;7.620;2022-08-25T06:54:10;21.40;99.90
6146;DHT22;3104;50.348;7.620;2022-08-25T06:56:37;21.50;99.90
6146;DHT22;3104;50.348;7.620;2022-08-25T06:59:04;21.50;99.90
6146;DHT22;3104;50.348;7.620;2022-08-25T07:01:30;21.60;99.90
6146;DHT22;3104;50.348;7.620;2022-08-25T07:03:58;21.60;99.90
6146;DHT22;3104;50.348;7.620;2022-08-25T07:06:26;21.70;99.90
6146;DHT22;3104;50.348;7.620;2022-08-25T07:08:52;21.70;99.90
6146;DHT22;3104;50.348;7.620;2022-08-25T07:11:19;21.90;99.90
6146;DHT22;3104;50.348;7.620;2022-08-25T07:13:48;21.90;99.90
6146;DHT22;3104;50.348;7.620;2022-08-25T07:16:15;22.20;99.90
6146;DHT22;3104;50.348;7.620;2022-08-25T07:18:42;22.30;99.90
6146;DHT22;3104;50.348;7.620;2022-08-25T07:21:09;22.50;99.90
6146;DHT22;3104;50.348;7.620;2022-08-25T07:23:36;22.60;99.90
6146;DHT22;3104;50.348;7.620;2022-08-25T07:26:16;22.70;99.90
6146;DHT22;3104;50.348;7.620;2022-08-25T07:28:42;22.80;99.90
6146;DHT22;3104;50.348;7.620;2022-08-25T07:31:08;22.90;99.90
6146;DHT22;3104;50.348;7.620;2022-08-25T07:33:34;23.00;99.90
6146;DHT22;3104;50.348;7.620;2022-08-25T07:36:00;23.00;99.90
6146;DHT22;3104;50.348;7.620;2022-08-25T07:38:25;23.10;99.90
6146;DHT22;3104;50.348;7.620;2022-08-25T07:40:51;23.10;99.90
6146;DHT22;3104;50.348;7.620;2022-08-25T07:43:20;23.20;99.90
6146;DHT22;3104;50.348;7.620;2022-08-25T07:45:47;23.30;99.90
6146;DHT22;3104;50.348;7.620;2022-08-25T07:48:13;23.40;99.90
6146;DHT22;3104;50.348;7.620;2022-08-25T07:50:41;23.50;99.90
6146;DHT22;3104;50.348;7.620;2022-08-25T07:53:08;23.70;99.90
6146;DHT22;3104;50.348;7.620;2022-08-25T07:55:35;23.80;99.90
6146;DHT22;3104;50.348;7.620;2022-08-25T07:58:02;23.80;99.90
6146;DHT22;3104;50.348;7.620;2022-08-25T08:00:29;24.00;99.90
6146;DHT22;3104;50.348;7.620;2022-08-25T08:02:57;24.10;99.90
6146;DHT22;3104;50.348;7.620;2022-08-25T08:05:24;24.10;99.90
6146;DHT22;3104;50.348;7.620;2022-08-25T08:07:51;24.20;99.90
6146;DHT22;3104;50.348;7.620;2022-08-25T08:10:17;24.30;99.90
6146;DHT22;3104;50.348;7.620;2022-08-25T08:12:43;24.30;99.90
6146;DHT22;3104;50.348;7.620;2022-08-25T08:15:10;24.40;99.90
6146;DHT22;3104;50.348;7.620;2022-08-25T08:17:37;24.50;99.90
6146;DHT22;3104;50.348;7.620;2022-08-25T08:20:03;24.60;99.90
6146;DHT22;3104;50.348;7.620;2022-08-25T08:22:33;24.80;99.90
6146;DHT22;3104;50.348;7.620;2022-08-25T08:25:00;24.90;99.90
6146;DHT22;3104;50.348;7.620;2022-08-25T08:27:26;25.00;99.90
6146;DHT22;3104;50.348;7.620;2022-08-25T08:29:51;25.20;99.90
6146;DHT22;3104;50.348;7.620;2022-08-25T08:32:18;25.60;99.90
6146;DHT22;3104;50.348;7.620;2022-08-25T08:34:45;26.00;99.90
6146;DHT22;3104;50.348;7.620;2022-08-25T08:37:11;26.50;99.90
6146;DHT22;3104;50.348;7.620;2022-08-25T08:39:37;26.50;99.90
6146;DHT22;3104;50.348;7.620;2022-08-25T08:42:12;26.90;99.90
6146;DHT22;3104;50.348;7.620;2022-08-25T08:53:12;27.70;99.90
6146;DHT22;3104;50.348;7.620;2022-08-25T08:55:37;28.90;99.40
6146;DHT22;3104;50.348;7.620;2022-08-25T08:58:08;29.00;98.70
6146;DHT22;3104;50.348;7.620;2022-08-25T09:00:39;28.50;99.40
6146;DHT22;3104;50.348;7.620;2022-08-25T09:03:15;29.00;98.90
6146;DHT22;3104;50.348;7.620;2022-08-25T09:05:50;29.10;98.30
6146;DHT22;3104;50.348;7.620;2022-08-25T09:08:17;28.20;99.20
6146;DHT22;3104;50.348;7.620;2022-08-25T09:11:00;29.00;98.20
6146;DHT22;3104;50.348;7.620;2022-08-25T09:16:36;29.10;97.80
6146;DHT22;3104;50.348;7.620;2022-08-25T09:27:45;28.70;97.70
6146;DHT22;3104;50.348;7.620;2022-08-25T09:30:16;29.50;97.30
6146;DHT22;3104;50.348;7.620;2022-08-25T09:32:49;30.50;95.30
6146;DHT22;3104;50.348;7.620;2022-08-25T09:35:27;30.40;95.40
6146;DHT22;3104;50.348;7.620;2022-08-25T09:38:06;30.40;95.10
6146;DHT22;3104;50.348;7.620;2022-08-25T09:40:35;31.20;94.10
6146;DHT22;3104;50.348;7.620;2022-08-25T09:43:04;30.60;93.50
6146;DHT22;3104;50.348;7.620;2022-08-25T09:45:39;30.60;93.20
6146;DHT22;3104;50.348;7.620;2022-08-25T09:48:24;30.60;93.20
6146;DHT22;3104;50.348;7.620;2022-08-25T09:50:52;30.70;92.30
6146;DHT22;3104;50.348;7.620;2022-08-25T09:53:19;29.90;92.40
6146;DHT22;3104;50.348;7.620;2022-08-25T09:55:50;30.60;91.80
6146;DHT22;3104;50.348;7.620;2022-08-25T09:58:22;30.70;91.40
6146;DHT22;3104;50.348;7.620;2022-08-25T10:01:01;30.80;91.00
6146;DHT22;3104;50.348;7.620;2022-08-25T10:03:28;31.10;90.20
6146;DHT22;3104;50.348;7.620;2022-08-25T10:08:34;32.30;87.70
6146;DHT22;3104;50.348;7.620;2022-08-25T10:11:03;32.20;87.30
6146;DHT22;3104;50.348;7.620;2022-08-25T10:13:49;32.80;87.00
6146;DHT22;3104;50.348;7.620;2022-08-25T10:16:27;33.10;87.20
6146;DHT22;3104;50.348;7.620;2022-08-25T10:21:29;32.20;86.50
6146;DHT22;3104;50.348;7.620;2022-08-25T10:23:55;31.50;88.70
6146;DHT22;3104;50.348;7.620;2022-08-25T10:26:46;31.60;86.80
6146;DHT22;3104;50.348;7.620;2022-08-25T10:34:34;31.50;87.10
6146;DHT22;3104;50.348;7.620;2022-08-25T10:43:09;31.90;81.30
6146;DHT22;3104;50.348;7.620;2022-08-25T10:45:48;32.60;80.70
6146;DHT22;3104;50.348;7.620;2022-08-25T10:56:33;32.90;72.30
6146;DHT22;3104;50.348;7.620;2022-08-25T10:59:40;32.00;72.40
6146;DHT22;3104;50.348;7.620;2022-08-25T11:07:47;32.90;77.60
6146;DHT22;3104;50.348;7.620;2022-08-25T11:12:44;33.30;78.90
6146;DHT22;3104;50.348;7.620;2022-08-25T11:15:22;32.20;80.80
6146;DHT22;3104;50.348;7.620;2022-08-25T11:20:35;31.60;81.40
6146;DHT22;3104;50.348;7.620;2022-08-25T11:25:35;31.90;82.60
6146;DHT22;3104;50.348;7.620;2022-08-25T11:30:34;33.40;81.20
6146;DHT22;3104;50.348;7.620;2022-08-25T11:33:00;34.20;80.20
6146;DHT22;3104;50.348;7.620;2022-08-25T11:35:39;34.00;78.70
6146;DHT22;3104;50.348;7.620;2022-08-25T11:41:35;32.50;80.50
6146;DHT22;3104;50.348;7.620;2022-08-25T11:46:38;32.80;80.20
6146;DHT22;3104;50.348;7.620;2022-08-25T11:51:57;33.50;80.10
6146;DHT22;3104;50.348;7.620;2022-08-25T11:54:43;33.00;79.50
6146;DHT22;3104;50.348;7.620;2022-08-25T12:05:02;31.50;82.90
6146;DHT22;3104;50.348;7.620;2022-08-25T12:07:56;32.00;82.60
6146;DHT22;3104;50.348;7.620;2022-08-25T12:10:59;32.30;81.30
6146;DHT22;3104;50.348;7.620;2022-08-25T12:19:25;31.90;80.60
6146;DHT22;3104;50.348;7.620;2022-08-25T12:21:54;31.10;82.40
6146;DHT22;3104;50.348;7.620;2022-08-25T12:24:47;30.90;82.80
6146;DHT22;3104;50.348;7.620;2022-08-25T12:30:12;30.70;83.30
6146;DHT22;3104;50.348;7.620;2022-08-25T12:35:57;30.20;84.20
6146;DHT22;3104;50.348;7.620;2022-08-25T12:41:02;32.10;80.30
6146;DHT22;3104;50.348;7.620;2022-08-25T12:43:33;32.60;79.10
6146;DHT22;3104;50.348;7.620;2022-08-25T12:51:51;33.10;76.40
6146;DHT22;3104;50.348;7.620;2022-08-25T12:57:51;34.00;72.30
6146;DHT22;3104;50.348;7.620;2022-08-25T13:11:23;31.70;70.80
6146;DHT22;3104;50.348;7.620;2022-08-25T13:14:17;32.20;73.10
6146;DHT22;3104;50.348;7.620;2022-08-25T13:16:57;32.80;73.20
6146;DHT22;3104;50.348;7.620;2022-08-25T13:19:23;33.70;71.70
6146;DHT22;3104;50.348;7.620;2022-08-25T13:21:50;34.10;71.90
6146;DHT22;3104;50.348;7.620;2022-08-25T13:24:21;34.20;70.90
6146;DHT22;3104;50.348;7.620;2022-08-25T13:27:01;34.60;70.20
6146;DHT22;3104;50.348;7.620;2022-08-25T13:29:30;34.80;69.90
6146;DHT22;3104;50.348;7.620;2022-08-25T13:34:27;33.80;69.70
6146;DHT22;3104;50.348;7.620;2022-08-25T13:36:54;33.10;72.60
6146;DHT22;3104;50.348;7.620;2022-08-25T13:39:39;33.30;72.20
6146;DHT22;3104;50.348;7.620;2022-08-25T13:42:13;33.20;73.20
6146;DHT22;3104;50.348;7.620;2022-08-25T13:44:39;33.60;71.70
6146;DHT22;3104;50.348;7.620;2022-08-25T13:47:10;32.40;73.00
6146;DHT22;3104;50.348;7.620;2022-08-25T13:49:37;31.80;73.30
6146;DHT22;3104;50.348;7.620;2022-08-25T13:52:03;32.50;73.60
6146;DHT22;3104;50.348;7.620;2022-08-25T13:54:33;33.30;71.70
6146;DHT22;3104;50.348;7.620;2022-08-25T13:57:27;32.50;71.50
6146;DHT22;3104;50.348;7.620;2022-08-25T13:59:59;32.30;70.90
6146;DHT22;3104;50.348;7.620;2022-08-25T14:02:50;32.50;70.80
6146;DHT22;3104;50.348;7.620;2022-08-25T14:05:40;33.40;70.80
6146;DHT22;3104;50.348;7.620;2022-08-25T14:08:25;33.40;69.30
6146;DHT22;3104;50.348;7.620;2022-08-25T14:13:32;31.60;71.00
6146;DHT22;3104;50.348;7.620;2022-08-25T14:16:20;31.90;71.20
6146;DHT22;3104;50.348;7.620;2022-08-25T14:18:52;32.20;71.00
6146;DHT22;3104;50.348;7.620;2022-08-25T14:21:21;32.20;70.80
6146;DHT22;3104;50.348;7.620;2022-08-25T14:23:48;32.00;71.20
6146;DHT22;3104;50.348;7.620;2022-08-25T14:26:13;31.80;71.40
6146;DHT22;3104;50.348;7.620;2022-08-25T14:28:39;31.90;72.30
6146;DHT22;3104;50.348;7.620;2022-08-25T14:31:12;31.70;71.70
6146;DHT22;3104;50.348;7.620;2022-08-25T14:33:55;32.30;71.80
6146;DHT22;3104;50.348;7.620;2022-08-25T14:36:21;32.60;72.50
6146;DHT22;3104;50.348;7.620;2022-08-25T14:38:47;32.40;69.60
6146;DHT22;3104;50.348;7.620;2022-08-25T14:41:13;32.80;70.90
6146;DHT22;3104;50.348;7.620;2022-08-25T14:43:40;33.60;69.60
6146;DHT22;3104;50.348;7.620;2022-08-25T14:46:19;33.90;70.30
6146;DHT22;3104;50.348;7.620;2022-08-25T14:48:48;32.90;69.40
6146;DHT22;3104;50.348;7.620;2022-08-25T14:51:15;33.20;68.70
6146;DHT22;3104;50.348;7.620;2022-08-25T14:53:41;33.00;67.80
6146;DHT22;3104;50.348;7.620;2022-08-25T14:56:08;31.90;68.60
6146;DHT22;3104;50.348;7.620;2022-08-25T14:58:34;32.00;70.10
6146;DHT22;3104;50.348;7.620;2022-08-25T15:00:59;32.20;70.00
6146;DHT22;3104;50.348;7.620;2022-08-25T15:03:35;33.00;70.00
6146;DHT22;3104;50.348;7.620;2022-08-25T15:06:03;33.10;68.20
6146;DHT22;3104;50.348;7.620;2022-08-25T15:08:29;32.90;70.00
6146;DHT22;3104;50.348;7.620;2022-08-25T15:11:14;32.70;70.20
6146;DHT22;3104;50.348;7.620;2022-08-25T15:13:40;32.70;70.50
6146;DHT22;3104;50.348;7.620;2022-08-25T15:16:06;32.50;71.00
6146;DHT22;3104;50.348;7.620;2022-08-25T15:18:33;32.50;70.90
6146;DHT22;3104;50.348;7.620;2022-08-25T15:20:58;32.50;70.90
6146;DHT22;3104;50.348;7.620;2022-08-25T15:23:24;32.70;72.00
6146;DHT22;3104;50.348;7.620;2022-08-25T15:25:53;32.40;70.50
6146;DHT22;3104;50.348;7.620;2022-08-25T15:28:19;32.50;71.60
6146;DHT22;3104;50.348;7.620;2022-08-25T15:30:46;32.70;71.20
6146;DHT22;3104;50.348;7.620;2022-08-25T15:33:14;32.30;72.50
6146;DHT22;3104;50.348;7.620;2022-08-25T15:35:40;32.60;72.90
6146;DHT22;3104;50.348;7.620;2022-08-25T15:38:06;32.70;72.70
6146;DHT22;3104;50.348;7.620;2022-08-25T15:40:32;33.10;71.00
6146;DHT22;3104;50.348;7.620;2022-08-25T15:42:59;33.00;70.50
6146;DHT22;3104;50.348;7.620;2022-08-25T15:45:25;33.00;70.40
6146;DHT22;3104;50.348;7.620;2022-08-25T15:47:50;32.70;73.30
6146;DHT22;3104;50.348;7.620;2022-08-25T15:50:18;33.00;72.00
6146;DHT22;3104;50.348;7.620;2022-08-25T15:52:44;33.20;69.90
6146;DHT22;3104;50.348;7.620;2022-08-25T15:55:11;33.10;71.50
6146;DHT22;3104;50.348;7.620;2022-08-25T15:57:38;33.60;70.70
6146;DHT22;3104;50.348;7.620;2022-08-25T16:00:06;33.60;69.20
6146;DHT22;3104;50.348;7.620;2022-08-25T16:02:35;33.20;70.10
6146;DHT22;3104;50.348;7.620;2022-08-25T16:05:00;33.40;70.40
6146;DHT22;3104;50.348;7.620;2022-08-25T16:07:26;33.70;69.60
6146;DHT22;3104;50.348;7.620;2022-08-25T16:09:56;33.80;69.80
6146;DHT22;3104;50.348;7.620;2022-08-25T16:12:23;33.80;69.80
6146;DHT22;3104;50.348;7.620;2022-08-25T16:14:49;33.70;68.80
6146;DHT22;3104;50.348;7.620;2022-08-25T16:17:15;33.50;70.20
6146;DHT22;3104;50.348;7.620;2022-08-25T16:19:41;33.50;68.70
6146;DHT22;3104;50.348;7.620;2022-08-25T16:22:06;33.50;69.40
6146;DHT22;3104;50.348;7.620;2022-08-25T16:24:32;33.40;68.80
6146;DHT22;3104;50.348;7.620;2022-08-25T16:26:59;32.80;68.90
6146;DHT22;3104;50.348;7.620;2022-08-25T16:29:34;33.10;70.30
6146;DHT22;3104;50.348;7.620;2022-08-25T16:32:04;33.00;70.20
6146;DHT22;3104;50.348;7.620;2022-08-25T16:34:30;32.80;68.70
6146;DHT22;3104;50.348;7.620;2022-08-25T16:36:56;32.70;69.10
6146;DHT22;3104;50.348;7.620;2022-08-25T16:39:22;33.00;69.80
6146;DHT22;3104;50.348;7.620;2022-08-25T16:41:48;33.20;68.70
6146;DHT22;3104;50.348;7.620;2022-08-25T16:44:15;33.40;67.80
6146;DHT22;3104;50.348;7.620;2022-08-25T16:46:40;33.00;68.10
6146;DHT22;3104;50.348;7.620;2022-08-25T16:49:08;32.40;68.50
6146;DHT22;3104;50.348;7.620;2022-08-25T16:51:36;32.60;70.10
6146;DHT22;3104;50.348;7.620;2022-08-25T16:54:03;32.30;69.70
6146;DHT22;3104;50.348;7.620;2022-08-25T16:56:47;32.40;71.60
6146;DHT22;3104;50.348;7.620;2022-08-25T16:59:13;32.80;70.50
6146;DHT22;3104;50.348;7.620;2022-08-25T17:01:40;33.10;70.40
6146;DHT22;3104;50.348;7.620;2022-08-25T17:04:07;33.20;71.50
6146;DHT22;3104;50.348;7.620;2022-08-25T17:06:36;33.20;70.30
6146;DHT22;3104;50.348;7.620;2022-08-25T17:09:02;33.10;69.80
6146;DHT22;3104;50.348;7.620;2022-08-25T17:11:30;33.10;69.20
6146;DHT22;3104;50.348;7.620;2022-08-25T17:13:58;32.50;69.50
6146;DHT22;3104;50.348;7.620;2022-08-25T17:16:28;31.90;70.80
6146;DHT22;3104;50.348;7.620;2022-08-25T17:18:55;31.70;71.40
6146;DHT22;3104;50.348;7.620;2022-08-25T17:21:22;31.60;72.20
6146;DHT22;3104;50.348;7.620;2022-08-25T17:23:51;31.60;72.50
6146;DHT22;3104;50.348;7.620;2022-08-25T17:26:17;31.40;73.20
6146;DHT22;3104;50.348;7.620;2022-08-25T17:28:44;31.10;73.90
6146;DHT22;3104;50.348;7.620;2022-08-25T17:31:11;31.00;74.90
6146;DHT22;3104;50.348;7.620;2022-08-25T17:33:37;31.10;75.60
6146;DHT22;3104;50.348;7.620;2022-08-25T17:36:04;30.80;75.70
6146;DHT22;3104;50.348;7.620;2022-08-25T17:38:31;30.80;76.10
6146;DHT22;3104;50.348;7.620;2022-08-25T17:41:00;30.80;76.10
6146;DHT22;3104;50.348;7.620;2022-08-25T17:43:27;30.70;76.60
6146;DHT22;3104;50.348;7.620;2022-08-25T17:45:54;30.70;76.70
6146;DHT22;3104;50.348;7.620;2022-08-25T17:48:22;30.90;76.50
6146;DHT22;3104;50.348;7.620;2022-08-25T17:50:48;31.10;76.80
6146;DHT22;3104;50.348;7.620;2022-08-25T17:53:14;30.80;76.70
6146;DHT22;3104;50.348;7.620;2022-08-25T17:55:41;30.50;77.30
6146;DHT22;3104;50.348;7.620;2022-08-25T17:58:08;30.40;77.40
6146;DHT22;3104;50.348;7.620;2022-08-25T18:00:35;30.30;77.80
6146;DHT22;3104;50.348;7.620;2022-08-25T18:03:01;30.50;77.90
6146;DHT22;3104;50.348;7.620;2022-08-25T18:05:29;30.30;78.40
6146;DHT22;3104;50.348;7.620;2022-08-25T18:07:55;30.30;78.90
6146;DHT22;3104;50.348;7.620;2022-08-25T18:10:21;30.40;78.60
6146;DHT22;3104;50.348;7.620;2022-08-25T18:12:47;30.40;79.10
6146;DHT22;3104;50.348;7.620;2022-08-25T18:15:14;30.30;78.80